Wake-n-waves — 9 — position and weather

sailwx.info

Track history (hours):
 
Tides and Currents Weather Stations Pressure Air Temp Water Temp Dewpoint Dewpoint Depression Visibility Wind Speed Wind Dir Waves Ship Positions

Wake-n-waves

Last reported at 2017-Nov-24 10:58 UTC. Time now 2017-Nov-24 11:12 UTC.
Position N 40°43' W 074°03'.

Length 17 m.

Type: Pleasure craft. MMSI: 338025702.

Date/timePositionNaut miles runAvg speedWind from/ knotsBaromVisibWave heightAir tempDewpointWater temp
2017-Nov-24 10:58N 40°43' W 074°03'0 0.0
2017-Nov-24 10:28N 40°43' W 074°03'0 0.0
2017-Nov-24 09:58N 40°43' W 074°03'0 0.0
2017-Nov-24 09:28N 40°43' W 074°03'0 0.0
2017-Nov-24 08:58N 40°43' W 074°03'0 0.0
2017-Nov-24 08:28N 40°43' W 074°03'0 0.0
2017-Nov-24 07:58N 40°43' W 074°03'0 0.0
2017-Nov-24 07:28N 40°43' W 074°03'0 0.0
2017-Nov-24 06:58N 40°43' W 074°03'0 0.0
2017-Nov-24 06:30N 40°43' W 074°03'0 0.0
2017-Nov-24 06:00N 40°43' W 074°03'0 0.0
2017-Nov-24 05:30N 40°43' W 074°03'0 0.0
2017-Nov-24 05:00N 40°43' W 074°03'0 0.0
2017-Nov-24 04:30N 40°43' W 074°03'0 0.0
2017-Nov-24 04:00N 40°43' W 074°03'0 0.0
2017-Nov-24 03:30N 40°43' W 074°03'0 0.0
2017-Nov-24 03:00N 40°43' W 074°03'952321533.6
2017-Nov-24 02:33N 31°03' E 121°29'9523164026.6
2017-Nov-24 02:30N 40°43' W 074°03'0 0.0
2017-Nov-24 02:00N 40°43' W 074°03'0 0.0
2017-Nov-24 01:30N 40°43' W 074°03'0 0.0
2017-Nov-24 01:00N 40°43' W 074°03'0 0.0
2017-Nov-24 00:30N 40°43' W 074°03'9523180440.5
2017-Nov-24 00:26N 31°03' E 121°29'952321281.0
2017-Nov-24 00:00N 40°43' W 074°03'9520204003.8
2017-Nov-23 23:57N 31°05' E 121°28'952021013.3
2017-Nov-23 23:30N 40°43' W 074°03'0 0.0
2017-Nov-23 23:00N 40°43' W 074°03'0 0.0
2017-Nov-23 22:30N 40°43' W 074°03'902766727.3
2017-Nov-23 22:22N 38°48' E 121°37'0 0.1
2017-Nov-23 22:00N 38°48' E 121°37'90271083203.8
2017-Nov-23 22:00N 40°43' W 074°03'902718526.9
2017-Nov-23 21:30N 38°48' E 121°37'9027722135.9
2017-Nov-23 21:30N 40°43' W 074°03'0 0.0
2017-Nov-23 21:00N 40°43' W 074°03'9027191153.3
2017-Nov-23 20:57N 38°48' E 121°37'902719924.0
2017-Nov-23 20:30N 40°43' W 074°03'90271412872.5
2017-Nov-23 20:29N 38°48' E 121°37'902718307.6
2017-Nov-23 20:00N 40°43' W 074°03'9027550777.2
2017-Nov-23 19:59N 38°48' E 121°37'902718654.3
2017-Nov-23 19:30N 40°43' W 074°03'9027416614.1
2017-Nov-23 19:28N 38°48' E 121°37'902718871.0
2017-Nov-23 19:00N 40°43' W 074°03'9027300887.7
2017-Nov-23 18:58N 38°48' E 121°37'0 0.0
2017-Nov-23 18:30N 38°48' E 121°37'9027755718.6
2017-Nov-23 18:30N 40°43' W 074°03'0 0.0
2017-Nov-23 18:00N 40°43' W 074°03'9027184635.8
2017-Nov-23 17:57N 38°48' E 121°37'902719997.5
2017-Nov-23 17:30N 40°43' W 074°03'9027156985.8
2017-Nov-23 17:26N 38°48' E 121°37'0 0.0
2017-Nov-23 17:00N 38°48' E 121°37'9027649921.3
2017-Nov-23 17:00N 40°43' W 074°03'948848725.8
2017-Nov-23 16:48N 31°07' E 120°51'948831051.6
2017-Nov-23 16:30N 40°43' W 074°03'9027303700.0
2017-Nov-23 16:28N 38°48' E 121°37'0 0.1
2017-Nov-23 16:00N 38°48' E 121°37'9027812401.1
2017-Nov-23 16:00N 40°43' W 074°03'902718134.2
2017-Nov-23 15:30N 38°48' E 121°37'90273249640.0
2017-Nov-23 15:30N 40°43' W 074°03'0 0.0
2017-Nov-23 15:00N 40°43' W 074°03'90271249870.6
2017-Nov-23 14:59N 38°48' E 121°38'902718339.0
2017-Nov-23 14:30N 40°43' W 074°03'9027541609.0
2017-Nov-23 14:29N 38°48' E 121°38'902718665.4
2017-Nov-23 14:00N 40°43' W 074°03'9027119913.3
2017-Nov-23 13:55N 38°48' E 121°38'0 0.0
2017-Nov-23 13:31N 38°48' E 121°38'9027590845.3
2017-Nov-23 13:30N 40°43' W 074°03'0 0.0
2017-Nov-23 13:00N 40°43' W 074°03'902755360.3
2017-Nov-23 12:50N 38°48' E 121°38'902726768.1
2017-Nov-23 12:30N 40°43' W 074°03'902752583.2
2017-Nov-23 12:19N 38°48' E 121°38'902727516.0
2017-Nov-23 12:00N 40°43' W 074°03'0 0.0
2017-Nov-23 11:30N 40°43' W 074°03'9027624932.1
2017-Nov-23 11:29N 38°48' E 121°38'902718590.7
2017-Nov-23 11:00N 40°43' W 074°03'902763469.7
2017-Nov-23 10:51N 38°48' E 121°38'902725230.2
2017-Nov-23 10:30N 40°43' W 074°03'0 0.0
2017-Nov-23 10:00N 40°43' W 074°03'902723227.9
2017-Nov-23 09:36N 38°48' E 121°37'902779065.2
2017-Nov-23 09:29N 40°43' W 074°03'902854529.6
2017-Nov-23 09:19N 38°46' E 121°36'902826903.7
2017-Nov-23 08:59N 40°43' W 074°03'0 0.0
2017-Nov-23 08:29N 40°43' W 074°03'952319400.8
2017-Nov-23 08:00N 31°03' E 121°29'95231071288.1
2017-Nov-23 07:59N 40°43' W 074°03'0 0.0
2017-Nov-23 07:29N 40°43' W 074°03'0 0.0
2017-Nov-23 06:59N 40°43' W 074°03'0 0.0
2017-Nov-23 06:29N 40°43' W 074°03'0 0.0
2017-Nov-23 05:59N 40°43' W 074°03'902961680.2
2017-Nov-23 05:51N 38°43' E 121°35'902923813.5
2017-Nov-23 05:28N 40°43' W 074°03'0 0.0
2017-Nov-23 04:58N 40°43' W 074°03'0 0.0
2017-Nov-23 04:28N 40°43' W 074°03'0 0.0
2017-Nov-23 03:58N 40°43' W 074°03'902544447.9
2017-Nov-23 03:46N 38°46' E 121°34'2 8.5
2017-Nov-23 03:28N 38°48' E 121°36'90251805046.4
2017-Nov-23 03:28N 40°43' W 074°03'0 0.0
2017-Nov-23 02:58N 40°43' W 074°03'0 0.0
2017-Nov-23 02:28N 40°43' W 074°03'0 0.0
2017-Nov-23 01:58N 40°43' W 074°03'0 0.0
2017-Nov-23 01:28N 40°43' W 074°03'0 0.0
2017-Nov-23 00:58N 40°43' W 074°03'0 0.0
2017-Nov-23 00:28N 40°43' W 074°03'0 0.0
2017-Nov-22 23:59N 40°43' W 074°03'0 0.0
2017-Nov-22 23:29N 40°43' W 074°03'0 0.0
2017-Nov-22 22:59N 40°43' W 074°03'0 0.0
2017-Nov-22 22:29N 40°43' W 074°03'0 0.0
2017-Nov-22 21:59N 40°43' W 074°03'0 0.0
2017-Nov-22 21:29N 40°43' W 074°03'0 0.0
2017-Nov-22 20:59N 40°43' W 074°03'0 0.0
2017-Nov-22 20:29N 40°43' W 074°03'0 0.0
2017-Nov-22 19:59N 40°43' W 074°03'0 0.0
2017-Nov-22 19:30N 40°43' W 074°03'  
2017-Nov-20 00:29N 40°43' W 074°03'0 0.0
2017-Nov-19 23:59N 40°43' W 074°03'0 0.0
2017-Nov-19 23:29N 40°43' W 074°03'0 0.0
2017-Nov-19 22:59N 40°43' W 074°03'0 0.0
2017-Nov-19 22:29N 40°43' W 074°03'0 0.0
2017-Nov-19 21:59N 40°43' W 074°03'0 0.0
2017-Nov-19 21:29N 40°43' W 074°03'0 0.0
2017-Nov-19 20:59N 40°43' W 074°03'0 0.0
2017-Nov-19 20:29N 40°43' W 074°03'0 0.0
2017-Nov-19 19:59N 40°43' W 074°03'0 0.0
2017-Nov-19 19:29N 40°43' W 074°03'0 0.0
2017-Nov-19 18:59N 40°43' W 074°03'0 0.0
2017-Nov-19 18:29N 40°43' W 074°03'0 0.0
2017-Nov-19 17:59N 40°43' W 074°03'0 0.0
2017-Nov-19 17:29N 40°43' W 074°03'0 0.0
2017-Nov-19 16:59N 40°43' W 074°03'0 0.0
2017-Nov-19 16:29N 40°43' W 074°03'0 0.0
2017-Nov-19 15:59N 40°43' W 074°03'0 0.0
2017-Nov-19 15:29N 40°43' W 074°03'0 0.0
2017-Nov-19 14:59N 40°43' W 074°03'0 0.0
2017-Nov-19 14:29N 40°43' W 074°03'0 0.0
2017-Nov-19 13:59N 40°43' W 074°03'0 0.0
2017-Nov-19 13:29N 40°43' W 074°03'0 0.0
2017-Nov-19 12:56N 40°43' W 074°03'0 0.0
2017-Nov-19 12:29N 40°43' W 074°03'0 0.0
2017-Nov-19 11:59N 40°43' W 074°03'0 0.0
2017-Nov-19 11:29N 40°43' W 074°03'0 0.0
2017-Nov-19 10:59N 40°43' W 074°03'0 0.0
2017-Nov-19 10:29N 40°43' W 074°03'0 0.0
2017-Nov-19 09:58N 40°43' W 074°03'0 0.0
2017-Nov-19 09:28N 40°43' W 074°03'0 0.0
2017-Nov-19 08:58N 40°43' W 074°03'0 0.0
2017-Nov-19 08:28N 40°43' W 074°03'0 0.0
2017-Nov-19 07:58N 40°43' W 074°03'0 0.0
2017-Nov-19 07:28N 40°43' W 074°03'0 0.0
2017-Nov-19 06:58N 40°43' W 074°03'0 0.0
2017-Nov-19 06:28N 40°43' W 074°03'0 0.0
2017-Nov-19 05:58N 40°43' W 074°03'0 0.0
2017-Nov-19 05:28N 40°43' W 074°03'0 0.0
2017-Nov-19 04:58N 40°43' W 074°03'0 0.0
2017-Nov-19 04:28N 40°43' W 074°03'0 0.0
2017-Nov-19 03:58N 40°43' W 074°03'0 0.0
2017-Nov-19 03:28N 40°43' W 074°03'0 0.0
2017-Nov-19 02:58N 40°43' W 074°03'0 0.0
2017-Nov-19 02:28N 40°43' W 074°03'0 0.0
2017-Nov-19 01:58N 40°43' W 074°03'902654063.8
2017-Nov-19 01:48N 38°44' E 121°32'3 9.8
2017-Nov-19 01:30N 38°46' E 121°35'9027266356.0
2017-Nov-19 01:28N 40°43' W 074°03'0 0.0
2017-Nov-19 00:58N 40°43' W 074°03'9026287568.0
2017-Nov-19 00:56N 38°50' E 121°40'902619262.1
2017-Nov-19 00:28N 40°43' W 074°03'0 0.0
2017-Nov-18 23:58N 40°43' W 074°03'0 0.0
2017-Nov-18 23:28N 40°43' W 074°03'0 0.0
2017-Nov-18 22:58N 40°43' W 074°03'0 0.0
2017-Nov-18 22:28N 40°43' W 074°03'0 0.0
2017-Nov-18 21:58N 40°43' W 074°03'0 0.0
2017-Nov-18 21:28N 40°43' W 074°03'0 0.0
2017-Nov-18 20:58N 40°43' W 074°03'0 0.0
2017-Nov-18 20:30N 40°43' W 074°03'0 0.0
2017-Nov-18 20:00N 40°43' W 074°03'0 0.0
2017-Nov-18 19:30N 40°43' W 074°03'0 0.0
2017-Nov-18 19:00N 40°43' W 074°03'0 0.0
2017-Nov-18 18:30N 40°43' W 074°03'0 0.0
2017-Nov-18 18:00N 40°43' W 074°03'0 0.0
2017-Nov-18 17:30N 40°43' W 074°03'0 0.0
2017-Nov-18 17:00N 40°43' W 074°03'0 0.0
2017-Nov-18 16:30N 40°43' W 074°03'0 0.0
2017-Nov-18 16:00N 40°43' W 074°03'0 0.0
2017-Nov-18 15:30N 40°43' W 074°03'0 0.0
2017-Nov-18 15:01N 40°43' W 074°03'0 0.0
2017-Nov-18 14:30N 40°43' W 074°03'0 0.0
2017-Nov-18 14:00N 40°43' W 074°03'0 0.0
2017-Nov-18 13:30N 40°43' W 074°03'0 0.0
2017-Nov-18 13:00N 40°43' W 074°03'0 0.0
2017-Nov-18 12:30N 40°43' W 074°03'0 0.0
2017-Nov-18 12:00N 40°43' W 074°03'0 0.0
2017-Nov-18 11:30N 40°43' W 074°03'0 0.0
2017-Nov-18 11:00N 40°43' W 074°03'0 0.0
2017-Nov-18 10:30N 40°43' W 074°03'0 0.0
2017-Nov-18 10:00N 40°43' W 074°03'0 0.0
2017-Nov-18 09:30N 40°43' W 074°03'0 0.0
2017-Nov-18 09:00N 40°43' W 074°03'0 0.0
2017-Nov-18 08:30N 40°43' W 074°03'0 0.0
2017-Nov-18 08:00N 40°43' W 074°03'0 0.0
2017-Nov-18 07:30N 40°43' W 074°03'0 0.0
2017-Nov-18 07:00N 40°43' W 074°03'0 0.0
2017-Nov-18 06:30N 40°43' W 074°03'0 0.0
2017-Nov-18 06:00N 40°43' W 074°03'0 0.0
2017-Nov-18 05:30N 40°43' W 074°03'0 0.0
2017-Nov-18 05:00N 40°43' W 074°03'0 0.0
2017-Nov-18 04:30N 40°43' W 074°03'0 0.0
2017-Nov-18 04:00N 40°43' W 074°03'0 0.0
2017-Nov-18 03:28N 40°43' W 074°03'0 0.0
2017-Nov-18 02:58N 40°43' W 074°03'0 0.0
2017-Nov-18 02:28N 40°43' W 074°03'0 0.0
2017-Nov-18 01:58N 40°43' W 074°03'0 0.0
2017-Nov-18 01:28N 40°43' W 074°03'0 0.0
2017-Nov-18 00:58N 40°43' W 074°03'0 0.0
2017-Nov-18 00:28N 40°43' W 074°03'0 0.0
2017-Nov-17 23:58N 40°43' W 074°03'0 0.0
2017-Nov-17 23:28N 40°43' W 074°03'0 0.0
2017-Nov-17 22:58N 40°43' W 074°03'0 0.0
2017-Nov-17 22:28N 40°43' W 074°03'0 0.0
2017-Nov-17 22:00N 40°43' W 074°03'0 0.0
2017-Nov-17 21:30N 40°43' W 074°03'0 0.0
2017-Nov-17 21:00N 40°43' W 074°03'0 0.0
2017-Nov-17 20:30N 40°43' W 074°03'0 0.0
2017-Nov-17 20:00N 40°43' W 074°03'0 0.0
2017-Nov-17 19:30N 40°43' W 074°03'0 0.0
2017-Nov-17 19:00N 40°43' W 074°03'0 0.0
2017-Nov-17 18:30N 40°43' W 074°03'0 0.0
2017-Nov-17 18:00N 40°43' W 074°03'0 0.0
2017-Nov-17 17:30N 40°43' W 074°03'0 0.0
2017-Nov-17 17:00N 40°43' W 074°03'0 0.0
2017-Nov-17 16:30N 40°43' W 074°03'0 0.0
2017-Nov-17 16:00N 40°43' W 074°03'0 0.0
2017-Nov-17 15:31N 40°43' W 074°03'0 0.0
2017-Nov-17 14:59N 40°43' W 074°03'0 0.0
2017-Nov-17 14:28N 40°43' W 074°03'0 0.0
2017-Nov-17 13:58N 40°43' W 074°03'0 0.0
2017-Nov-17 13:28N 40°43' W 074°03'959898446.1
2017-Nov-17 13:23N 22°59' E 113°07'959823863.7
2017-Nov-17 12:58N 40°43' W 074°03'0 0.0
2017-Nov-17 12:28N 40°43' W 074°03'0 0.0
2017-Nov-17 11:59N 40°43' W 074°03'0 0.0
2017-Nov-17 11:28N 40°43' W 074°03'0 0.0
2017-Nov-17 10:58N 40°43' W 074°03'0 0.0
2017-Nov-17 10:28N 40°43' W 074°03'0 0.0
2017-Nov-17 09:58N 40°43' W 074°03'0 0.0
2017-Nov-17 09:29N 40°43' W 074°03'0 0.0
2017-Nov-17 08:58N 40°43' W 074°03'9605122181.0
2017-Nov-17 08:54N 23°03' E 113°20'960522898.8
2017-Nov-17 08:29N 40°43' W 074°03'9607411724.8
2017-Nov-17 08:27N 23°02' E 113°21'960720084.1
2017-Nov-17 07:58N 40°43' W 074°03'0 0.0
2017-Nov-17 07:28N 40°43' W 074°03'9609364146.3
2017-Nov-17 07:27N 23°03' E 113°25'2 4.0
2017-Nov-17 06:59N 23°04' E 113°26'96094941662.1
2017-Nov-17 06:58N 40°43' W 074°03'961019940.5
2017-Nov-17 06:30N 23°05' E 113°28'9610549155.7
2017-Nov-17 06:28N 40°43' W 074°03'961320214.0
2017-Nov-17 06:00N 23°04' E 113°30'9613393254.6
2017-Nov-17 05:58N 40°43' W 074°03'961620410.3
2017-Nov-17 05:30N 23°02' E 113°31'9616329675.6
2017-Nov-17 05:28N 40°43' W 074°03'0 0.0
2017-Nov-17 04:58N 40°43' W 074°03'96161018181.5
2017-Nov-17 04:58N 23°02' E 113°31'1 1.6
2017-Nov-17 04:30N 23°01' E 113°32'9617353280.1
2017-Nov-17 04:28N 40°43' W 074°03'961720583.5
2017-Nov-17 04:00N 23°01' E 113°32'9617293402.1
2017-Nov-17 03:58N 40°43' W 074°03'961720595.7
2017-Nov-17 03:30N 23°01' E 113°32'9617293401.9
2017-Nov-17 03:28N 40°43' W 074°03'961720413.6
2017-Nov-17 03:00N 23°01' E 113°32'9617329728.1
2017-Nov-17 02:58N 40°43' W 074°03'961719977.8
2017-Nov-17 02:30N 23°01' E 113°32'9617524567.1
2017-Nov-17 02:28N 40°43' W 074°03'0 0.0
2017-Nov-17 01:58N 40°43' W 074°03'96171573702.2
2017-Nov-17 01:58N 23°01' E 113°32'6572735.2
2017-Nov-17 01:44N 31°21' E 121°31'0 0.0
2017-Nov-17 01:30N 31°21' E 121°31'9505388848.8
2017-Nov-17 01:28N 40°43' W 074°03'96173147406.3
2017-Nov-17 01:28N 23°01' E 113°32'0 0.0
2017-Nov-17 01:00N 23°01' E 113°32'9617389005.3
2017-Nov-17 00:58N 40°43' W 074°03'961720047.2
2017-Nov-17 00:30N 23°01' E 113°32'9617487626.1
2017-Nov-17 00:28N 40°43' W 074°03'961720413.6
2017-Nov-17 00:00N 23°01' E 113°32'9617332898.7
2017-Nov-16 23:58N 40°43' W 074°03'961720632.6
2017-Nov-16 23:31N 23°01' E 113°32'9617281475.4
2017-Nov-16 23:28N 40°43' W 074°03'961620411.1
2017-Nov-16 23:00N 23°01' E 113°31'9616329687.3
2017-Nov-16 22:58N 40°43' W 074°03'961620387.1
2017-Nov-16 22:30N 23°01' E 113°31'9616339385.0
2017-Nov-16 22:28N 40°43' W 074°03'961620244.0
2017-Nov-16 22:00N 23°01' E 113°31'9616384636.6
2017-Nov-16 21:58N 40°43' W 074°03'961620617.8
2017-Nov-16 21:30N 23°01' E 113°31'9616286093.4
2017-Nov-16 21:28N 40°43' W 074°03'0 0.0
2017-Nov-16 20:58N 40°43' W 074°03'9616402526.7
2017-Nov-16 20:57N 23°01' E 113°31'0 0.0
2017-Nov-16 20:30N 23°01' E 113°31'9616455490.7
2017-Nov-16 20:28N 40°43' W 074°03'961620532.2
2017-Nov-16 20:00N 23°01' E 113°31'96161442387.3
2017-Nov-16 20:00N 40°43' W 074°03'961618906.2
2017-Nov-16 19:29N 23°01' E 113°31'9616618165.7
2017-Nov-16 19:29N 40°43' W 074°03'961620544.4
2017-Nov-16 19:00N 23°01' E 113°31'9616295874.3
2017-Nov-16 18:58N 40°43' W 074°03'961620244.0
2017-Nov-16 18:30N 23°01' E 113°31'9616127739.1
2017-Nov-16 18:25N 40°43' W 074°03'961622774.5
2017-Nov-16 18:00N 23°01' E 113°31'9616346173.0
2017-Nov-16 17:58N 40°43' W 074°03'961620363.1
2017-Nov-16 17:30N 23°01' E 113°31'9616342745.5
2017-Nov-16 17:28N 40°43' W 074°03'961620033.2
2017-Nov-16 17:00N 23°01' E 113°31'9616480795.8
2017-Nov-16 16:58N 40°43' W 074°03'961620079.6
2017-Nov-16 16:30N 23°01' E 113°31'9616461563.7
2017-Nov-16 16:28N 40°43' W 074°03'0 0.0
2017-Nov-16 15:58N 40°43' W 074°03'0 0.0
2017-Nov-16 15:28N 40°43' W 074°03'96161153898.0
2017-Nov-16 15:28N 23°01' E 113°31'0 0.0
2017-Nov-16 15:00N 23°01' E 113°31'9616349665.8
2017-Nov-16 14:59N 40°43' W 074°03'961619524.5
2017-Nov-16 14:29N 23°01' E 113°31'96161153897.4
2017-Nov-16 14:28N 40°43' W 074°03'961620642.2
2017-Nov-16 14:01N 23°01' E 113°31'9616293363.9
2017-Nov-16 13:59N 40°43' W 074°03'961619568.6
2017-Nov-16 13:29N 23°01' E 113°31'9616961581.7
2017-Nov-16 13:28N 40°43' W 074°03'961620447.1
2017-Nov-16 13:00N 23°01' E 113°31'9616323522.8
2017-Nov-16 12:58N 40°43' W 074°03'961620220.2
2017-Nov-16 12:30N 23°01' E 113°31'9616393374.3
2017-Nov-16 12:28N 40°43' W 074°03'961620232.0
2017-Nov-16 12:00N 23°01' E 113°31'9616388954.4
2017-Nov-16 11:58N 40°43' W 074°03'961620471.3
2017-Nov-16 11:30N 23°01' E 113°31'9616320527.0
2017-Nov-16 11:28N 40°43' W 074°03'961620398.9
2017-Nov-16 11:00N 23°01' E 113°31'9616336086.8
2017-Nov-16 10:58N 40°43' W 074°03'961620033.0
2017-Nov-16 10:30N 23°01' E 113°31'9616480790.8
2017-Nov-16 10:28N 40°43' W 074°03'0 0.0
2017-Nov-16 09:58N 40°43' W 074°03'96161923173.8
2017-Nov-16 09:58N 23°01' E 113°31'0 0.0
2017-Nov-16 09:30N 23°01' E 113°31'9616336088.8
2017-Nov-16 09:28N 40°43' W 074°03'961620185.0
2017-Nov-16 09:00N 23°01' E 113°31'9616402527.1
2017-Nov-16 08:58N 40°43' W 074°03'961620411.1
2017-Nov-16 08:30N 23°01' E 113°31'9616336089.0
2017-Nov-16 08:28N 40°43' W 074°03'961620220.4
2017-Nov-16 08:00N 23°01' E 113°31'9616393378.8
2017-Nov-16 07:58N 40°43' W 074°03'961620220.4
2017-Nov-16 07:30N 23°01' E 113°31'9616388958.8
2017-Nov-16 07:28N 40°43' W 074°03'961619815.3
2017-Nov-16 06:59N 23°01' E 113°31'9616653156.5
2017-Nov-16 06:58N 40°43' W 074°03'961619792.6
2017-Nov-16 06:29N 23°01' E 113°31'9616678770.4
2017-Nov-16 06:28N 40°43' W 074°03'961620375.1
2017-Nov-16 06:00N 23°01' E 113°31'9616353237.9
2017-Nov-16 05:59N 40°43' W 074°03'961620411.1
2017-Nov-16 05:30N 23°01' E 113°31'9616323526.3
2017-Nov-16 05:28N 40°43' W 074°03'961620483.6
2017-Nov-16 05:00N 23°01' E 113°31'9616320530.7
2017-Nov-16 04:58N 40°43' W 074°03'961620387.1
2017-Nov-16 04:30N 23°01' E 113°31'9616339385.0
2017-Nov-16 04:28N 40°43' W 074°03'961620410.9
2017-Nov-16 04:00N 23°01' E 113°31'9616326574.9
2017-Nov-16 03:58N 40°43' W 074°03'961620137.8
2017-Nov-16 03:30N 23°01' E 113°31'9616422157.8
2017-Nov-16 03:28N 40°43' W 074°03'961620568.6
2017-Nov-16 03:00N 23°01' E 113°31'9616298421.7
2017-Nov-16 02:58N 40°43' W 074°03'961620568.6
2017-Nov-16 02:30N 23°01' E 113°31'9616295871.5
2017-Nov-16 02:28N 40°43' W 074°03'961619837.8
2017-Nov-16 01:59N 23°01' E 113°31'9616629398.9
2017-Nov-16 01:58N 40°43' W 074°03'961620605.3
2017-Nov-16 01:30N 23°01' E 113°31'9616301017.0
2017-Nov-16 01:29N 40°43' W 074°03'961620291.3
2017-Nov-16 01:00N 23°01' E 113°31'9616356875.9
2017-Nov-16 00:58N 40°43' W 074°03'961619826.4
2017-Nov-16 00:29N 23°01' E 113°31'9616618160.0
2017-Nov-16 00:28N 40°43' W 074°03'961620507.7
2017-Nov-16 00:00N 23°01' E 113°31'9616309080.0
2017-Nov-15 23:58N 40°43' W 074°03'961620568.6
2017-Nov-15 23:30N 23°01' E 113°31'9616298422.3
2017-Nov-15 23:28N 40°43' W 074°03'961619894.8
2017-Nov-15 22:59N 23°01' E 113°31'9616567491.5
2017-Nov-15 22:58N 40°43' W 074°03'0 0.0
2017-Nov-15 22:28N 40°43' W 074°03'96162662838.8
2017-Nov-15 22:28N 23°01' E 113°31'0 0.1
2017-Nov-15 21:59N 23°01' E 113°31'9616629402.3
2017-Nov-15 21:59N 40°43' W 074°03'961620520.0
2017-Nov-15 21:30N 23°01' E 113°31'9616303659.4
2017-Nov-15 21:28N 40°43' W 074°03'961619849.3
2017-Nov-15 20:59N 23°01' E 113°31'9616618164.1
2017-Nov-15 20:58N 40°43' W 074°03'961620556.5
2017-Nov-15 20:30N 23°01' E 113°31'9616298423.9
2017-Nov-15 20:28N 40°43' W 074°03'0 0.0
2017-Nov-15 19:58N 40°43' W 074°03'96161331429.6
2017-Nov-15 19:58N 23°01' E 113°31'0 0.0
2017-Nov-15 19:30N 23°01' E 113°31'9616360595.7
2017-Nov-15 19:28N 40°43' W 074°03'961620351.1
2017-Nov-15 19:00N 23°01' E 113°31'9616353236.6
2017-Nov-15 18:58N 40°43' W 074°03'0 0.0
2017-Nov-15 18:28N 40°43' W 074°03'9616229252.7
2017-Nov-15 18:26N 23°01' E 113°31'0 0.0
2017-Nov-15 18:00N 23°01' E 113°31'9616336089.0
2017-Nov-15 17:58N 40°43' W 074°03'961620556.5
2017-Nov-15 17:30N 23°01' E 113°31'9616293365.8
2017-Nov-15 17:28N 40°43' W 074°03'961620593.2
2017-Nov-15 17:00N 23°01' E 113°31'9616301018.9
2017-Nov-15 16:59N 40°43' W 074°03'961619371.7
2017-Nov-15 16:29N 23°01' E 113°31'96162163573.1
2017-Nov-15 16:28N 40°43' W 074°03'0 0.0
2017-Nov-15 15:59N 40°43' W 074°03'9616314703.0
2017-Nov-15 15:57N 23°01' E 113°31'0 0.1
2017-Nov-15 15:30N 23°01' E 113°31'9616422160.6
2017-Nov-15 15:28N 40°43' W 074°03'0 0.0
2017-Nov-15 14:59N 40°43' W 074°03'0 0.0
2017-Nov-15 14:28N 40°43' W 074°03'961647290.9
2017-Nov-15 14:16N 23°01' E 113°31'0 0.0
2017-Nov-15 14:00N 23°01' E 113°31'9616346169.6
2017-Nov-15 13:59N 40°43' W 074°03'961620339.0
2017-Nov-15 13:30N 23°01' E 113°31'9616339382.0
2017-Nov-15 13:29N 40°43' W 074°03'961620362.9
2017-Nov-15 13:00N 23°01' E 113°31'9616342742.2
2017-Nov-15 12:58N 40°43' W 074°03'961620362.9
2017-Nov-15 12:30N 23°01' E 113°31'9616342742.2
2017-Nov-15 12:28N 40°43' W 074°03'961620362.9
2017-Nov-15 12:00N 23°01' E 113°31'9616346169.6
2017-Nov-15 11:58N 40°43' W 074°03'0 0.0
2017-Nov-15 11:28N 40°43' W 074°03'9616240395.4
2017-Nov-15 11:26N 23°01' E 113°31'0 0.0
2017-Nov-15 11:00N 23°01' E 113°31'9616380406.4
2017-Nov-15 10:58N 40°43' W 074°03'961619371.6
2017-Nov-15 10:29N 23°01' E 113°31'96162662844.7
2017-Nov-15 10:28N 40°43' W 074°03'961619602.0
2017-Nov-15 09:59N 23°01' E 113°31'96161018151.4
2017-Nov-15 09:58N 40°43' W 074°03'961620447.2
2017-Nov-15 09:30N 23°01' E 113°31'9616329687.1
2017-Nov-15 09:29N 40°43' W 074°03'961620568.7
2017-Nov-15 09:00N 23°01' E 113°31'9616290900.6
2017-Nov-15 08:58N 40°43' W 074°03'961620161.4
2017-Nov-15 08:30N 23°01' E 113°31'9616417074.3
2017-Nov-15 08:28N 40°43' W 074°03'961620556.0
2017-Nov-15 08:00N 23°02' E 113°31'9616298416.8
2017-Nov-15 07:58N 40°43' W 074°03'961619860.2
2017-Nov-15 07:29N 23°02' E 113°31'9616607304.0
2017-Nov-15 07:28N 40°43' W 074°03'0 0.0
2017-Nov-15 06:59N 40°43' W 074°03'9616245506.0
2017-Nov-15 06:56N 23°02' E 113°31'0 0.0
2017-Nov-15 06:29N 23°02' E 113°31'96161018127.8
2017-Nov-15 06:28N 40°43' W 074°03'0 0.0
2017-Nov-15 05:58N 40°43' W 074°03'961623232.4
2017-Nov-15 05:34N 23°02' E 113°31'9616112026.9
2017-Nov-15 05:29N 40°43' W 074°03'9616209795.9
2017-Nov-15 05:26N 23°02' E 113°31'0 0.0
2017-Nov-15 05:00N 23°02' E 113°31'9616384626.3
2017-Nov-15 04:58N 40°43' W 074°03'961620398.6
2017-Nov-15 04:30N 23°02' E 113°31'9616353228.2
2017-Nov-15 04:29N 40°43' W 074°03'961619480.2
2017-Nov-15 03:59N 23°02' E 113°31'96161505058.5
2017-Nov-15 03:59N 40°43' W 074°03'961620495.2
2017-Nov-15 03:30N 23°02' E 113°31'9616314694.0
2017-Nov-15 03:29N 40°43' W 074°03'961619469.2
2017-Nov-15 02:59N 23°02' E 113°31'96161573469.3
2017-Nov-15 02:59N 40°43' W 074°03'961619557.3
2017-Nov-15 02:29N 23°02' E 113°31'96161116656.3
2017-Nov-15 02:29N 40°43' W 074°03'961619963.3
2017-Nov-15 02:00N 23°02' E 113°31'9616524489.8
2017-Nov-15 01:59N 40°43' W 074°03'961619306.4
2017-Nov-15 01:29N 23°02' E 113°31'96168654081.6
2017-Nov-15 01:29N 40°43' W 074°03'961620507.3
2017-Nov-15 01:00N 23°02' E 113°31'9616301011.0
2017-Nov-15 00:59N 40°43' W 074°03'961620338.6
2017-Nov-15 00:30N 23°02' E 113°31'9616353226.7
2017-Nov-15 00:29N 40°43' W 074°03'961620374.5
2017-Nov-15 00:00N 23°02' E 113°31'9616346162.0
2017-Nov-14 23:59N 40°43' W 074°03'961620374.5
2017-Nov-14 23:30N 23°02' E 113°31'9616339374.7
2017-Nov-14 23:29N 40°43' W 074°03'961620519.4
2017-Nov-14 23:00N 23°02' E 113°31'9616306338.0
2017-Nov-14 22:59N 40°43' W 074°03'961619792.0
2017-Nov-14 22:29N 23°02' E 113°31'9616692324.4
2017-Nov-14 22:29N 40°43' W 074°03'0 0.0
2017-Nov-14 21:59N 40°43' W 074°03'9616494518.6
2017-Nov-14 21:57N 23°02' E 113°31'0 0.0
2017-Nov-14 21:30N 23°02' E 113°31'9616368258.8
2017-Nov-14 21:29N 40°43' W 074°03'961619601.5
2017-Nov-14 20:59N 23°02' E 113°31'9616989037.8
2017-Nov-14 20:59N 40°43' W 074°03'961619557.3
2017-Nov-14 20:29N 23°02' E 113°31'96161116657.0
2017-Nov-14 20:29N 40°43' W 074°03'961619679.6
2017-Nov-14 19:59N 23°02' E 113°31'9616844301.6
2017-Nov-14 19:59N 40°43' W 074°03'0 0.0
2017-Nov-14 19:29N 40°43' W 074°03'9616412099.3
2017-Nov-14 19:27N 23°02' E 113°31'0 0.0
2017-Nov-14 19:00N 23°02' E 113°31'9616388947.7
2017-Nov-14 18:59N 40°43' W 074°03'961619668.4
2017-Nov-14 18:29N 23°02' E 113°31'9616961565.2
2017-Nov-14 18:29N 40°43' W 074°03'961620470.9
2017-Nov-14 18:00N 23°02' E 113°31'9616309074.7
2017-Nov-14 17:59N 40°43' W 074°03'961619535.2
2017-Nov-14 17:29N 23°02' E 113°31'96161153878.2
2017-Nov-14 17:29N 40°43' W 074°03'961620208.0
2017-Nov-14 17:00N 23°02' E 113°31'9616397889.0
2017-Nov-14 16:59N 40°43' W 074°03'961619917.3
2017-Nov-14 16:30N 23°02' E 113°31'9616567481.1
2017-Nov-14 16:29N 40°43' W 074°03'0 0.0
2017-Nov-14 15:59N 40°43' W 074°03'9616388947.7
2017-Nov-14 15:57N 23°02' E 113°31'0 0.0
2017-Nov-14 15:30N 23°02' E 113°31'9616438181.6
2017-Nov-14 15:29N 40°43' W 074°03'0 0.0
2017-Nov-14 14:59N 40°43' W 074°03'9616286085.0
2017-Nov-14 14:57N 23°02' E 113°31'0 0.1
2017-Nov-14 14:30N 23°02' E 113°31'9616332848.1
2017-Nov-14 14:29N 40°43' W 074°03'961619769.4
2017-Nov-14 13:59N 23°02' E 113°31'9616678748.6
2017-Nov-14 13:59N 40°43' W 074°03'961620172.6
2017-Nov-14 13:30N 23°02' E 113°31'9616417062.9
2017-Nov-14 13:29N 40°43' W 074°03'961619480.1
2017-Nov-14 12:59N 23°02' E 113°31'96161505053.0
2017-Nov-14 12:59N 40°43' W 074°03'961619414.6
2017-Nov-14 12:29N 23°02' E 113°31'96162163512.4
2017-Nov-14 12:29N 40°43' W 074°03'961619646.0
2017-Nov-14 11:59N 23°02' E 113°31'9616887595.4
2017-Nov-14 11:59N 40°43' W 074°03'961620160.9
2017-Nov-14 11:30N 23°02' E 113°31'9616417062.9
2017-Nov-14 11:29N 40°43' W 074°03'961620137.4
2017-Nov-14 11:00N 23°02' E 113°31'9616422148.8
2017-Nov-14 10:59N 40°43' W 074°03'  
Track history (hours):
 
Tides and Currents Weather Stations Pressure Air Temp Water Temp Dewpoint Dewpoint Depression Visibility Wind Speed Wind Dir Waves Ship Positions

Wake-n-waves

Last reported at 2017-Nov-24 10:58 UTC. Time now 2017-Nov-24 11:12 UTC.
Position N 40°43' W 074°03'.

Length 17 m.

Type: Pleasure craft. MMSI: 338025702.

Date/timePositionNaut miles runAvg speedWind from/ knotsBaromVisibWave heightAir tempDewpointWater temp
2017-Nov-24 10:58N 40°43' W 074°03'0 0.0
2017-Nov-24 10:28N 40°43' W 074°03'0 0.0
2017-Nov-24 09:58N 40°43' W 074°03'0 0.0
2017-Nov-24 09:28N 40°43' W 074°03'0 0.0
2017-Nov-24 08:58N 40°43' W 074°03'0 0.0
2017-Nov-24 08:28N 40°43' W 074°03'0 0.0
2017-Nov-24 07:58N 40°43' W 074°03'0 0.0
2017-Nov-24 07:28N 40°43' W 074°03'0 0.0
2017-Nov-24 06:58N 40°43' W 074°03'0 0.0
2017-Nov-24 06:30N 40°43' W 074°03'0 0.0
2017-Nov-24 06:00N 40°43' W 074°03'0 0.0
2017-Nov-24 05:30N 40°43' W 074°03'0 0.0
2017-Nov-24 05:00N 40°43' W 074°03'0 0.0
2017-Nov-24 04:30N 40°43' W 074°03'0 0.0
2017-Nov-24 04:00N 40°43' W 074°03'0 0.0
2017-Nov-24 03:30N 40°43' W 074°03'0 0.0
2017-Nov-24 03:00N 40°43' W 074°03'952321533.6
2017-Nov-24 02:33N 31°03' E 121°29'9523164026.6
2017-Nov-24 02:30N 40°43' W 074°03'0 0.0
2017-Nov-24 02:00N 40°43' W 074°03'0 0.0
2017-Nov-24 01:30N 40°43' W 074°03'0 0.0
2017-Nov-24 01:00N 40°43' W 074°03'0 0.0
2017-Nov-24 00:30N 40°43' W 074°03'9523180440.5
2017-Nov-24 00:26N 31°03' E 121°29'952321281.0
2017-Nov-24 00:00N 40°43' W 074°03'9520204003.8
2017-Nov-23 23:57N 31°05' E 121°28'952021013.3
2017-Nov-23 23:30N 40°43' W 074°03'0 0.0
2017-Nov-23 23:00N 40°43' W 074°03'0 0.0
2017-Nov-23 22:30N 40°43' W 074°03'902766727.3
2017-Nov-23 22:22N 38°48' E 121°37'0 0.1
2017-Nov-23 22:00N 38°48' E 121°37'90271083203.8
2017-Nov-23 22:00N 40°43' W 074°03'902718526.9
2017-Nov-23 21:30N 38°48' E 121°37'9027722135.9
2017-Nov-23 21:30N 40°43' W 074°03'0 0.0
2017-Nov-23 21:00N 40°43' W 074°03'9027191153.3
2017-Nov-23 20:57N 38°48' E 121°37'902719924.0
2017-Nov-23 20:30N 40°43' W 074°03'90271412872.5
2017-Nov-23 20:29N 38°48' E 121°37'902718307.6
2017-Nov-23 20:00N 40°43' W 074°03'9027550777.2
2017-Nov-23 19:59N 38°48' E 121°37'902718654.3
2017-Nov-23 19:30N 40°43' W 074°03'9027416614.1
2017-Nov-23 19:28N 38°48' E 121°37'902718871.0
2017-Nov-23 19:00N 40°43' W 074°03'9027300887.7
2017-Nov-23 18:58N 38°48' E 121°37'0 0.0
2017-Nov-23 18:30N 38°48' E 121°37'9027755718.6
2017-Nov-23 18:30N 40°43' W 074°03'0 0.0
2017-Nov-23 18:00N 40°43' W 074°03'9027184635.8
2017-Nov-23 17:57N 38°48' E 121°37'902719997.5
2017-Nov-23 17:30N 40°43' W 074°03'9027156985.8
2017-Nov-23 17:26N 38°48' E 121°37'0 0.0
2017-Nov-23 17:00N 38°48' E 121°37'9027649921.3
2017-Nov-23 17:00N 40°43' W 074°03'948848725.8
2017-Nov-23 16:48N 31°07' E 120°51'948831051.6
2017-Nov-23 16:30N 40°43' W 074°03'9027303700.0
2017-Nov-23 16:28N 38°48' E 121°37'0 0.1
2017-Nov-23 16:00N 38°48' E 121°37'9027812401.1
2017-Nov-23 16:00N 40°43' W 074°03'902718134.2
2017-Nov-23 15:30N 38°48' E 121°37'90273249640.0
2017-Nov-23 15:30N 40°43' W 074°03'0 0.0
2017-Nov-23 15:00N 40°43' W 074°03'90271249870.6
2017-Nov-23 14:59N 38°48' E 121°38'902718339.0
2017-Nov-23 14:30N 40°43' W 074°03'9027541609.0
2017-Nov-23 14:29N 38°48' E 121°38'902718665.4
2017-Nov-23 14:00N 40°43' W 074°03'9027119913.3
2017-Nov-23 13:55N 38°48' E 121°38'0 0.0
2017-Nov-23 13:31N 38°48' E 121°38'9027590845.3
2017-Nov-23 13:30N 40°43' W 074°03'0 0.0
2017-Nov-23 13:00N 40°43' W 074°03'902755360.3
2017-Nov-23 12:50N 38°48' E 121°38'902726768.1
2017-Nov-23 12:30N 40°43' W 074°03'902752583.2
2017-Nov-23 12:19N 38°48' E 121°38'902727516.0
2017-Nov-23 12:00N 40°43' W 074°03'0 0.0
2017-Nov-23 11:30N 40°43' W 074°03'9027624932.1
2017-Nov-23 11:29N 38°48' E 121°38'902718590.7
2017-Nov-23 11:00N 40°43' W 074°03'902763469.7
2017-Nov-23 10:51N 38°48' E 121°38'902725230.2
2017-Nov-23 10:30N 40°43' W 074°03'0 0.0
2017-Nov-23 10:00N 40°43' W 074°03'902723227.9
2017-Nov-23 09:36N 38°48' E 121°37'902779065.2
2017-Nov-23 09:29N 40°43' W 074°03'902854529.6
2017-Nov-23 09:19N 38°46' E 121°36'902826903.7
2017-Nov-23 08:59N 40°43' W 074°03'0 0.0
2017-Nov-23 08:29N 40°43' W 074°03'952319400.8
2017-Nov-23 08:00N 31°03' E 121°29'95231071288.1
2017-Nov-23 07:59N 40°43' W 074°03'0 0.0
2017-Nov-23 07:29N 40°43' W 074°03'0 0.0
2017-Nov-23 06:59N 40°43' W 074°03'0 0.0
2017-Nov-23 06:29N 40°43' W 074°03'0 0.0
2017-Nov-23 05:59N 40°43' W 074°03'902961680.2
2017-Nov-23 05:51N 38°43' E 121°35'902923813.5
2017-Nov-23 05:28N 40°43' W 074°03'0 0.0
2017-Nov-23 04:58N 40°43' W 074°03'0 0.0
2017-Nov-23 04:28N 40°43' W 074°03'0 0.0
2017-Nov-23 03:58N 40°43' W 074°03'902544447.9
2017-Nov-23 03:46N 38°46' E 121°34'2 8.5
2017-Nov-23 03:28N 38°48' E 121°36'90251805046.4
2017-Nov-23 03:28N 40°43' W 074°03'0 0.0
2017-Nov-23 02:58N 40°43' W 074°03'0 0.0
2017-Nov-23 02:28N 40°43' W 074°03'0 0.0
2017-Nov-23 01:58N 40°43' W 074°03'0 0.0
2017-Nov-23 01:28N 40°43' W 074°03'0 0.0
2017-Nov-23 00:58N 40°43' W 074°03'0 0.0
2017-Nov-23 00:28N 40°43' W 074°03'0 0.0
2017-Nov-22 23:59N 40°43' W 074°03'0 0.0
2017-Nov-22 23:29N 40°43' W 074°03'0 0.0
2017-Nov-22 22:59N 40°43' W 074°03'0 0.0
2017-Nov-22 22:29N 40°43' W 074°03'0 0.0
2017-Nov-22 21:59N 40°43' W 074°03'0 0.0
2017-Nov-22 21:29N 40°43' W 074°03'0 0.0
2017-Nov-22 20:59N 40°43' W 074°03'0 0.0
2017-Nov-22 20:29N 40°43' W 074°03'0 0.0
2017-Nov-22 19:59N 40°43' W 074°03'0 0.0
2017-Nov-22 19:30N 40°43' W 074°03'  
2017-Nov-20 00:29N 40°43' W 074°03'0 0.0
2017-Nov-19 23:59N 40°43' W 074°03'0 0.0
2017-Nov-19 23:29N 40°43' W 074°03'0 0.0
2017-Nov-19 22:59N 40°43' W 074°03'0 0.0
2017-Nov-19 22:29N 40°43' W 074°03'0 0.0
2017-Nov-19 21:59N 40°43' W 074°03'0 0.0
2017-Nov-19 21:29N 40°43' W 074°03'0 0.0
2017-Nov-19 20:59N 40°43' W 074°03'0 0.0
2017-Nov-19 20:29N 40°43' W 074°03'0 0.0
2017-Nov-19 19:59N 40°43' W 074°03'0 0.0
2017-Nov-19 19:29N 40°43' W 074°03'0 0.0
2017-Nov-19 18:59N 40°43' W 074°03'0 0.0
2017-Nov-19 18:29N 40°43' W 074°03'0 0.0
2017-Nov-19 17:59N 40°43' W 074°03'0 0.0
2017-Nov-19 17:29N 40°43' W 074°03'0 0.0
2017-Nov-19 16:59N 40°43' W 074°03'0 0.0
2017-Nov-19 16:29N 40°43' W 074°03'0 0.0
2017-Nov-19 15:59N 40°43' W 074°03'0 0.0
2017-Nov-19 15:29N 40°43' W 074°03'0 0.0
2017-Nov-19 14:59N 40°43' W 074°03'0 0.0
2017-Nov-19 14:29N 40°43' W 074°03'0 0.0
2017-Nov-19 13:59N 40°43' W 074°03'0 0.0
2017-Nov-19 13:29N 40°43' W 074°03'0 0.0
2017-Nov-19 12:56N 40°43' W 074°03'0 0.0
2017-Nov-19 12:29N 40°43' W 074°03'0 0.0
2017-Nov-19 11:59N 40°43' W 074°03'0 0.0
2017-Nov-19 11:29N 40°43' W 074°03'0 0.0
2017-Nov-19 10:59N 40°43' W 074°03'0 0.0
2017-Nov-19 10:29N 40°43' W 074°03'0 0.0
2017-Nov-19 09:58N 40°43' W 074°03'0 0.0
2017-Nov-19 09:28N 40°43' W 074°03'0 0.0
2017-Nov-19 08:58N 40°43' W 074°03'0 0.0
2017-Nov-19 08:28N 40°43' W 074°03'0 0.0
2017-Nov-19 07:58N 40°43' W 074°03'0 0.0
2017-Nov-19 07:28N 40°43' W 074°03'0 0.0
2017-Nov-19 06:58N 40°43' W 074°03'0 0.0
2017-Nov-19 06:28N 40°43' W 074°03'0 0.0
2017-Nov-19 05:58N 40°43' W 074°03'0 0.0
2017-Nov-19 05:28N 40°43' W 074°03'0 0.0
2017-Nov-19 04:58N 40°43' W 074°03'0 0.0
2017-Nov-19 04:28N 40°43' W 074°03'0 0.0
2017-Nov-19 03:58N 40°43' W 074°03'0 0.0
2017-Nov-19 03:28N 40°43' W 074°03'0 0.0
2017-Nov-19 02:58N 40°43' W 074°03'0 0.0
2017-Nov-19 02:28N 40°43' W 074°03'0 0.0
2017-Nov-19 01:58N 40°43' W 074°03'902654063.8
2017-Nov-19 01:48N 38°44' E 121°32'3 9.8
2017-Nov-19 01:30N 38°46' E 121°35'9027266356.0
2017-Nov-19 01:28N 40°43' W 074°03'0 0.0
2017-Nov-19 00:58N 40°43' W 074°03'9026287568.0
2017-Nov-19 00:56N 38°50' E 121°40'902619262.1
2017-Nov-19 00:28N 40°43' W 074°03'0 0.0
2017-Nov-18 23:58N 40°43' W 074°03'0 0.0
2017-Nov-18 23:28N 40°43' W 074°03'0 0.0
2017-Nov-18 22:58N 40°43' W 074°03'0 0.0
2017-Nov-18 22:28N 40°43' W 074°03'0 0.0
2017-Nov-18 21:58N 40°43' W 074°03'0 0.0
2017-Nov-18 21:28N 40°43' W 074°03'0 0.0
2017-Nov-18 20:58N 40°43' W 074°03'0 0.0
2017-Nov-18 20:30N 40°43' W 074°03'0 0.0
2017-Nov-18 20:00N 40°43' W 074°03'0 0.0
2017-Nov-18 19:30N 40°43' W 074°03'0 0.0
2017-Nov-18 19:00N 40°43' W 074°03'0 0.0
2017-Nov-18 18:30N 40°43' W 074°03'0 0.0
2017-Nov-18 18:00N 40°43' W 074°03'0 0.0
2017-Nov-18 17:30N 40°43' W 074°03'0 0.0
2017-Nov-18 17:00N 40°43' W 074°03'0 0.0
2017-Nov-18 16:30N 40°43' W 074°03'0 0.0
2017-Nov-18 16:00N 40°43' W 074°03'0 0.0
2017-Nov-18 15:30N 40°43' W 074°03'0 0.0
2017-Nov-18 15:01N 40°43' W 074°03'0 0.0
2017-Nov-18 14:30N 40°43' W 074°03'0 0.0
2017-Nov-18 14:00N 40°43' W 074°03'0 0.0
2017-Nov-18 13:30N 40°43' W 074°03'0 0.0
2017-Nov-18 13:00N 40°43' W 074°03'0 0.0
2017-Nov-18 12:30N 40°43' W 074°03'0 0.0
2017-Nov-18 12:00N 40°43' W 074°03'0 0.0
2017-Nov-18 11:30N 40°43' W 074°03'0 0.0
2017-Nov-18 11:00N 40°43' W 074°03'0 0.0
2017-Nov-18 10:30N 40°43' W 074°03'0 0.0
2017-Nov-18 10:00N 40°43' W 074°03'0 0.0
2017-Nov-18 09:30N 40°43' W 074°03'0 0.0
2017-Nov-18 09:00N 40°43' W 074°03'0 0.0
2017-Nov-18 08:30N 40°43' W 074°03'0 0.0
2017-Nov-18 08:00N 40°43' W 074°03'0 0.0
2017-Nov-18 07:30N 40°43' W 074°03'0 0.0
2017-Nov-18 07:00N 40°43' W 074°03'0 0.0
2017-Nov-18 06:30N 40°43' W 074°03'0 0.0
2017-Nov-18 06:00N 40°43' W 074°03'0 0.0
2017-Nov-18 05:30N 40°43' W 074°03'0 0.0
2017-Nov-18 05:00N 40°43' W 074°03'0 0.0
2017-Nov-18 04:30N 40°43' W 074°03'0 0.0
2017-Nov-18 04:00N 40°43' W 074°03'0 0.0
2017-Nov-18 03:28N 40°43' W 074°03'0 0.0
2017-Nov-18 02:58N 40°43' W 074°03'0 0.0
2017-Nov-18 02:28N 40°43' W 074°03'0 0.0
2017-Nov-18 01:58N 40°43' W 074°03'0 0.0
2017-Nov-18 01:28N 40°43' W 074°03'0 0.0
2017-Nov-18 00:58N 40°43' W 074°03'0 0.0
2017-Nov-18 00:28N 40°43' W 074°03'0 0.0
2017-Nov-17 23:58N 40°43' W 074°03'0 0.0
2017-Nov-17 23:28N 40°43' W 074°03'0 0.0
2017-Nov-17 22:58N 40°43' W 074°03'0 0.0
2017-Nov-17 22:28N 40°43' W 074°03'0 0.0
2017-Nov-17 22:00N 40°43' W 074°03'0 0.0
2017-Nov-17 21:30N 40°43' W 074°03'0 0.0
2017-Nov-17 21:00N 40°43' W 074°03'0 0.0
2017-Nov-17 20:30N 40°43' W 074°03'0 0.0
2017-Nov-17 20:00N 40°43' W 074°03'0 0.0
2017-Nov-17 19:30N 40°43' W 074°03'0 0.0
2017-Nov-17 19:00N 40°43' W 074°03'0 0.0
2017-Nov-17 18:30N 40°43' W 074°03'0 0.0
2017-Nov-17 18:00N 40°43' W 074°03'0 0.0
2017-Nov-17 17:30N 40°43' W 074°03'0 0.0
2017-Nov-17 17:00N 40°43' W 074°03'0 0.0
2017-Nov-17 16:30N 40°43' W 074°03'0 0.0
2017-Nov-17 16:00N 40°43' W 074°03'0 0.0
2017-Nov-17 15:31N 40°43' W 074°03'0 0.0
2017-Nov-17 14:59N 40°43' W 074°03'0 0.0
2017-Nov-17 14:28N 40°43' W 074°03'0 0.0
2017-Nov-17 13:58N 40°43' W 074°03'0 0.0
2017-Nov-17 13:28N 40°43' W 074°03'959898446.1
2017-Nov-17 13:23N 22°59' E 113°07'959823863.7
2017-Nov-17 12:58N 40°43' W 074°03'0 0.0
2017-Nov-17 12:28N 40°43' W 074°03'0 0.0
2017-Nov-17 11:59N 40°43' W 074°03'0 0.0
2017-Nov-17 11:28N 40°43' W 074°03'0 0.0
2017-Nov-17 10:58N 40°43' W 074°03'0 0.0
2017-Nov-17 10:28N 40°43' W 074°03'0 0.0
2017-Nov-17 09:58N 40°43' W 074°03'0 0.0
2017-Nov-17 09:29N 40°43' W 074°03'0 0.0
2017-Nov-17 08:58N 40°43' W 074°03'9605122181.0
2017-Nov-17 08:54N 23°03' E 113°20'960522898.8
2017-Nov-17 08:29N 40°43' W 074°03'9607411724.8
2017-Nov-17 08:27N 23°02' E 113°21'960720084.1
2017-Nov-17 07:58N 40°43' W 074°03'0 0.0
2017-Nov-17 07:28N 40°43' W 074°03'9609364146.3
2017-Nov-17 07:27N 23°03' E 113°25'2 4.0
2017-Nov-17 06:59N 23°04' E 113°26'96094941662.1
2017-Nov-17 06:58N 40°43' W 074°03'961019940.5
2017-Nov-17 06:30N 23°05' E 113°28'9610549155.7
2017-Nov-17 06:28N 40°43' W 074°03'961320214.0
2017-Nov-17 06:00N 23°04' E 113°30'9613393254.6
2017-Nov-17 05:58N 40°43' W 074°03'961620410.3
2017-Nov-17 05:30N 23°02' E 113°31'9616329675.6
2017-Nov-17 05:28N 40°43' W 074°03'0 0.0
2017-Nov-17 04:58N 40°43' W 074°03'96161018181.5
2017-Nov-17 04:58N 23°02' E 113°31'1 1.6
2017-Nov-17 04:30N 23°01' E 113°32'9617353280.1
2017-Nov-17 04:28N 40°43' W 074°03'961720583.5
2017-Nov-17 04:00N 23°01' E 113°32'9617293402.1
2017-Nov-17 03:58N 40°43' W 074°03'961720595.7
2017-Nov-17 03:30N 23°01' E 113°32'9617293401.9
2017-Nov-17 03:28N 40°43' W 074°03'961720413.6
2017-Nov-17 03:00N 23°01' E 113°32'9617329728.1
2017-Nov-17 02:58N 40°43' W 074°03'961719977.8
2017-Nov-17 02:30N 23°01' E 113°32'9617524567.1
2017-Nov-17 02:28N 40°43' W 074°03'0 0.0
2017-Nov-17 01:58N 40°43' W 074°03'96171573702.2
2017-Nov-17 01:58N 23°01' E 113°32'6572735.2
2017-Nov-17 01:44N 31°21' E 121°31'0 0.0
2017-Nov-17 01:30N 31°21' E 121°31'9505388848.8
2017-Nov-17 01:28N 40°43' W 074°03'96173147406.3
2017-Nov-17 01:28N 23°01' E 113°32'0 0.0
2017-Nov-17 01:00N 23°01' E 113°32'9617389005.3
2017-Nov-17 00:58N 40°43' W 074°03'961720047.2
2017-Nov-17 00:30N 23°01' E 113°32'9617487626.1
2017-Nov-17 00:28N 40°43' W 074°03'961720413.6
2017-Nov-17 00:00N 23°01' E 113°32'9617332898.7
2017-Nov-16 23:58N 40°43' W 074°03'961720632.6
2017-Nov-16 23:31N 23°01' E 113°32'9617281475.4
2017-Nov-16 23:28N 40°43' W 074°03'961620411.1
2017-Nov-16 23:00N 23°01' E 113°31'9616329687.3
2017-Nov-16 22:58N 40°43' W 074°03'961620387.1
2017-Nov-16 22:30N 23°01' E 113°31'9616339385.0
2017-Nov-16 22:28N 40°43' W 074°03'961620244.0
2017-Nov-16 22:00N 23°01' E 113°31'9616384636.6
2017-Nov-16 21:58N 40°43' W 074°03'961620617.8
2017-Nov-16 21:30N 23°01' E 113°31'9616286093.4
2017-Nov-16 21:28N 40°43' W 074°03'0 0.0
2017-Nov-16 20:58N 40°43' W 074°03'9616402526.7
2017-Nov-16 20:57N 23°01' E 113°31'0 0.0
2017-Nov-16 20:30N 23°01' E 113°31'9616455490.7
2017-Nov-16 20:28N 40°43' W 074°03'961620532.2
2017-Nov-16 20:00N 23°01' E 113°31'96161442387.3
2017-Nov-16 20:00N 40°43' W 074°03'961618906.2
2017-Nov-16 19:29N 23°01' E 113°31'9616618165.7
2017-Nov-16 19:29N 40°43' W 074°03'961620544.4
2017-Nov-16 19:00N 23°01' E 113°31'9616295874.3
2017-Nov-16 18:58N 40°43' W 074°03'961620244.0
2017-Nov-16 18:30N 23°01' E 113°31'9616127739.1
2017-Nov-16 18:25N 40°43' W 074°03'961622774.5
2017-Nov-16 18:00N 23°01' E 113°31'9616346173.0
2017-Nov-16 17:58N 40°43' W 074°03'961620363.1
2017-Nov-16 17:30N 23°01' E 113°31'9616342745.5
2017-Nov-16 17:28N 40°43' W 074°03'961620033.2
2017-Nov-16 17:00N 23°01' E 113°31'9616480795.8
2017-Nov-16 16:58N 40°43' W 074°03'961620079.6
2017-Nov-16 16:30N 23°01' E 113°31'9616461563.7
2017-Nov-16 16:28N 40°43' W 074°03'0 0.0
2017-Nov-16 15:58N 40°43' W 074°03'0 0.0
2017-Nov-16 15:28N 40°43' W 074°03'96161153898.0
2017-Nov-16 15:28N 23°01' E 113°31'0 0.0
2017-Nov-16 15:00N 23°01' E 113°31'9616349665.8
2017-Nov-16 14:59N 40°43' W 074°03'961619524.5
2017-Nov-16 14:29N 23°01' E 113°31'96161153897.4
2017-Nov-16 14:28N 40°43' W 074°03'961620642.2
2017-Nov-16 14:01N 23°01' E 113°31'9616293363.9
2017-Nov-16 13:59N 40°43' W 074°03'961619568.6
2017-Nov-16 13:29N 23°01' E 113°31'9616961581.7
2017-Nov-16 13:28N 40°43' W 074°03'961620447.1
2017-Nov-16 13:00N 23°01' E 113°31'9616323522.8
2017-Nov-16 12:58N 40°43' W 074°03'961620220.2
2017-Nov-16 12:30N 23°01' E 113°31'9616393374.3
2017-Nov-16 12:28N 40°43' W 074°03'961620232.0
2017-Nov-16 12:00N 23°01' E 113°31'9616388954.4
2017-Nov-16 11:58N 40°43' W 074°03'961620471.3
2017-Nov-16 11:30N 23°01' E 113°31'9616320527.0
2017-Nov-16 11:28N 40°43' W 074°03'961620398.9
2017-Nov-16 11:00N 23°01' E 113°31'9616336086.8
2017-Nov-16 10:58N 40°43' W 074°03'961620033.0
2017-Nov-16 10:30N 23°01' E 113°31'9616480790.8
2017-Nov-16 10:28N 40°43' W 074°03'0 0.0
2017-Nov-16 09:58N 40°43' W 074°03'96161923173.8
2017-Nov-16 09:58N 23°01' E 113°31'0 0.0
2017-Nov-16 09:30N 23°01' E 113°31'9616336088.8
2017-Nov-16 09:28N 40°43' W 074°03'961620185.0
2017-Nov-16 09:00N 23°01' E 113°31'9616402527.1
2017-Nov-16 08:58N 40°43' W 074°03'961620411.1
2017-Nov-16 08:30N 23°01' E 113°31'9616336089.0
2017-Nov-16 08:28N 40°43' W 074°03'961620220.4
2017-Nov-16 08:00N 23°01' E 113°31'9616393378.8
2017-Nov-16 07:58N 40°43' W 074°03'961620220.4
2017-Nov-16 07:30N 23°01' E 113°31'9616388958.8
2017-Nov-16 07:28N 40°43' W 074°03'961619815.3
2017-Nov-16 06:59N 23°01' E 113°31'9616653156.5
2017-Nov-16 06:58N 40°43' W 074°03'961619792.6
2017-Nov-16 06:29N 23°01' E 113°31'9616678770.4
2017-Nov-16 06:28N 40°43' W 074°03'961620375.1
2017-Nov-16 06:00N 23°01' E 113°31'9616353237.9
2017-Nov-16 05:59N 40°43' W 074°03'961620411.1
2017-Nov-16 05:30N 23°01' E 113°31'9616323526.3
2017-Nov-16 05:28N 40°43' W 074°03'961620483.6
2017-Nov-16 05:00N 23°01' E 113°31'9616320530.7
2017-Nov-16 04:58N 40°43' W 074°03'961620387.1
2017-Nov-16 04:30N 23°01' E 113°31'9616339385.0
2017-Nov-16 04:28N 40°43' W 074°03'961620410.9
2017-Nov-16 04:00N 23°01' E 113°31'9616326574.9
2017-Nov-16 03:58N 40°43' W 074°03'961620137.8
2017-Nov-16 03:30N 23°01' E 113°31'9616422157.8
2017-Nov-16 03:28N 40°43' W 074°03'961620568.6
2017-Nov-16 03:00N 23°01' E 113°31'9616298421.7
2017-Nov-16 02:58N 40°43' W 074°03'961620568.6
2017-Nov-16 02:30N 23°01' E 113°31'9616295871.5
2017-Nov-16 02:28N 40°43' W 074°03'961619837.8
2017-Nov-16 01:59N 23°01' E 113°31'9616629398.9
2017-Nov-16 01:58N 40°43' W 074°03'961620605.3
2017-Nov-16 01:30N 23°01' E 113°31'9616301017.0
2017-Nov-16 01:29N 40°43' W 074°03'961620291.3
2017-Nov-16 01:00N 23°01' E 113°31'9616356875.9
2017-Nov-16 00:58N 40°43' W 074°03'961619826.4
2017-Nov-16 00:29N 23°01' E 113°31'9616618160.0
2017-Nov-16 00:28N 40°43' W 074°03'961620507.7
2017-Nov-16 00:00N 23°01' E 113°31'9616309080.0
2017-Nov-15 23:58N 40°43' W 074°03'961620568.6
2017-Nov-15 23:30N 23°01' E 113°31'9616298422.3
2017-Nov-15 23:28N 40°43' W 074°03'961619894.8
2017-Nov-15 22:59N 23°01' E 113°31'9616567491.5
2017-Nov-15 22:58N 40°43' W 074°03'0 0.0
2017-Nov-15 22:28N 40°43' W 074°03'96162662838.8
2017-Nov-15 22:28N 23°01' E 113°31'0 0.1
2017-Nov-15 21:59N 23°01' E 113°31'9616629402.3
2017-Nov-15 21:59N 40°43' W 074°03'961620520.0
2017-Nov-15 21:30N 23°01' E 113°31'9616303659.4
2017-Nov-15 21:28N 40°43' W 074°03'961619849.3
2017-Nov-15 20:59N 23°01' E 113°31'9616618164.1
2017-Nov-15 20:58N 40°43' W 074°03'961620556.5
2017-Nov-15 20:30N 23°01' E 113°31'9616298423.9
2017-Nov-15 20:28N 40°43' W 074°03'0 0.0
2017-Nov-15 19:58N 40°43' W 074°03'96161331429.6
2017-Nov-15 19:58N 23°01' E 113°31'0 0.0
2017-Nov-15 19:30N 23°01' E 113°31'9616360595.7
2017-Nov-15 19:28N 40°43' W 074°03'961620351.1
2017-Nov-15 19:00N 23°01' E 113°31'9616353236.6
2017-Nov-15 18:58N 40°43' W 074°03'0 0.0
2017-Nov-15 18:28N 40°43' W 074°03'9616229252.7
2017-Nov-15 18:26N 23°01' E 113°31'0 0.0
2017-Nov-15 18:00N 23°01' E 113°31'9616336089.0
2017-Nov-15 17:58N 40°43' W 074°03'961620556.5
2017-Nov-15 17:30N 23°01' E 113°31'9616293365.8
2017-Nov-15 17:28N 40°43' W 074°03'961620593.2
2017-Nov-15 17:00N 23°01' E 113°31'9616301018.9
2017-Nov-15 16:59N 40°43' W 074°03'961619371.7
2017-Nov-15 16:29N 23°01' E 113°31'96162163573.1
2017-Nov-15 16:28N 40°43' W 074°03'0 0.0
2017-Nov-15 15:59N 40°43' W 074°03'9616314703.0
2017-Nov-15 15:57N 23°01' E 113°31'0 0.1
2017-Nov-15 15:30N 23°01' E 113°31'9616422160.6
2017-Nov-15 15:28N 40°43' W 074°03'0 0.0
2017-Nov-15 14:59N 40°43' W 074°03'0 0.0
2017-Nov-15 14:28N 40°43' W 074°03'961647290.9
2017-Nov-15 14:16N 23°01' E 113°31'0 0.0
2017-Nov-15 14:00N 23°01' E 113°31'9616346169.6
2017-Nov-15 13:59N 40°43' W 074°03'961620339.0
2017-Nov-15 13:30N 23°01' E 113°31'9616339382.0
2017-Nov-15 13:29N 40°43' W 074°03'961620362.9
2017-Nov-15 13:00N 23°01' E 113°31'9616342742.2
2017-Nov-15 12:58N 40°43' W 074°03'961620362.9
2017-Nov-15 12:30N 23°01' E 113°31'9616342742.2
2017-Nov-15 12:28N 40°43' W 074°03'961620362.9
2017-Nov-15 12:00N 23°01' E 113°31'9616346169.6
2017-Nov-15 11:58N 40°43' W 074°03'0 0.0
2017-Nov-15 11:28N 40°43' W 074°03'9616240395.4
2017-Nov-15 11:26N 23°01' E 113°31'0 0.0
2017-Nov-15 11:00N 23°01' E 113°31'9616380406.4
2017-Nov-15 10:58N 40°43' W 074°03'961619371.6
2017-Nov-15 10:29N 23°01' E 113°31'96162662844.7
2017-Nov-15 10:28N 40°43' W 074°03'961619602.0
2017-Nov-15 09:59N 23°01' E 113°31'96161018151.4
2017-Nov-15 09:58N 40°43' W 074°03'961620447.2
2017-Nov-15 09:30N 23°01' E 113°31'9616329687.1
2017-Nov-15 09:29N 40°43' W 074°03'961620568.7
2017-Nov-15 09:00N 23°01' E 113°31'9616290900.6
2017-Nov-15 08:58N 40°43' W 074°03'961620161.4
2017-Nov-15 08:30N 23°01' E 113°31'9616417074.3
2017-Nov-15 08:28N 40°43' W 074°03'961620556.0
2017-Nov-15 08:00N 23°02' E 113°31'9616298416.8
2017-Nov-15 07:58N 40°43' W 074°03'961619860.2
2017-Nov-15 07:29N 23°02' E 113°31'9616607304.0
2017-Nov-15 07:28N 40°43' W 074°03'0 0.0
2017-Nov-15 06:59N 40°43' W 074°03'9616245506.0
2017-Nov-15 06:56N 23°02' E 113°31'0 0.0
2017-Nov-15 06:29N 23°02' E 113°31'96161018127.8
2017-Nov-15 06:28N 40°43' W 074°03'0 0.0
2017-Nov-15 05:58N 40°43' W 074°03'961623232.4
2017-Nov-15 05:34N 23°02' E 113°31'9616112026.9
2017-Nov-15 05:29N 40°43' W 074°03'9616209795.9
2017-Nov-15 05:26N 23°02' E 113°31'0 0.0
2017-Nov-15 05:00N 23°02' E 113°31'9616384626.3
2017-Nov-15 04:58N 40°43' W 074°03'961620398.6
2017-Nov-15 04:30N 23°02' E 113°31'9616353228.2
2017-Nov-15 04:29N 40°43' W 074°03'961619480.2
2017-Nov-15 03:59N 23°02' E 113°31'96161505058.5
2017-Nov-15 03:59N 40°43' W 074°03'961620495.2
2017-Nov-15 03:30N 23°02' E 113°31'9616314694.0
2017-Nov-15 03:29N 40°43' W 074°03'961619469.2
2017-Nov-15 02:59N 23°02' E 113°31'96161573469.3
2017-Nov-15 02:59N 40°43' W 074°03'961619557.3
2017-Nov-15 02:29N 23°02' E 113°31'96161116656.3
2017-Nov-15 02:29N 40°43' W 074°03'961619963.3
2017-Nov-15 02:00N 23°02' E 113°31'9616524489.8
2017-Nov-15 01:59N 40°43' W 074°03'961619306.4
2017-Nov-15 01:29N 23°02' E 113°31'96168654081.6
2017-Nov-15 01:29N 40°43' W 074°03'961620507.3
2017-Nov-15 01:00N 23°02' E 113°31'9616301011.0
2017-Nov-15 00:59N 40°43' W 074°03'961620338.6
2017-Nov-15 00:30N 23°02' E 113°31'9616353226.7
2017-Nov-15 00:29N 40°43' W 074°03'961620374.5
2017-Nov-15 00:00N 23°02' E 113°31'9616346162.0
2017-Nov-14 23:59N 40°43' W 074°03'961620374.5
2017-Nov-14 23:30N 23°02' E 113°31'9616339374.7
2017-Nov-14 23:29N 40°43' W 074°03'961620519.4
2017-Nov-14 23:00N 23°02' E 113°31'9616306338.0
2017-Nov-14 22:59N 40°43' W 074°03'961619792.0
2017-Nov-14 22:29N 23°02' E 113°31'9616692324.4
2017-Nov-14 22:29N 40°43' W 074°03'0 0.0
2017-Nov-14 21:59N 40°43' W 074°03'9616494518.6
2017-Nov-14 21:57N 23°02' E 113°31'0 0.0
2017-Nov-14 21:30N 23°02' E 113°31'9616368258.8
2017-Nov-14 21:29N 40°43' W 074°03'961619601.5
2017-Nov-14 20:59N 23°02' E 113°31'9616989037.8
2017-Nov-14 20:59N 40°43' W 074°03'961619557.3
2017-Nov-14 20:29N 23°02' E 113°31'96161116657.0
2017-Nov-14 20:29N 40°43' W 074°03'961619679.6
2017-Nov-14 19:59N 23°02' E 113°31'9616844301.6
2017-Nov-14 19:59N 40°43' W 074°03'0 0.0
2017-Nov-14 19:29N 40°43' W 074°03'9616412099.3
2017-Nov-14 19:27N 23°02' E 113°31'0 0.0
2017-Nov-14 19:00N 23°02' E 113°31'9616388947.7
2017-Nov-14 18:59N 40°43' W 074°03'961619668.4
2017-Nov-14 18:29N 23°02' E 113°31'9616961565.2
2017-Nov-14 18:29N 40°43' W 074°03'961620470.9
2017-Nov-14 18:00N 23°02' E 113°31'9616309074.7
2017-Nov-14 17:59N 40°43' W 074°03'961619535.2
2017-Nov-14 17:29N 23°02' E 113°31'96161153878.2
2017-Nov-14 17:29N 40°43' W 074°03'961620208.0
2017-Nov-14 17:00N 23°02' E 113°31'9616397889.0
2017-Nov-14 16:59N 40°43' W 074°03'961619917.3
2017-Nov-14 16:30N 23°02' E 113°31'9616567481.1
2017-Nov-14 16:29N 40°43' W 074°03'0 0.0
2017-Nov-14 15:59N 40°43' W 074°03'9616388947.7
2017-Nov-14 15:57N 23°02' E 113°31'0 0.0
2017-Nov-14 15:30N 23°02' E 113°31'9616438181.6
2017-Nov-14 15:29N 40°43' W 074°03'0 0.0
2017-Nov-14 14:59N 40°43' W 074°03'9616286085.0
2017-Nov-14 14:57N 23°02' E 113°31'0 0.1
2017-Nov-14 14:30N 23°02' E 113°31'9616332848.1
2017-Nov-14 14:29N 40°43' W 074°03'961619769.4
2017-Nov-14 13:59N 23°02' E 113°31'9616678748.6
2017-Nov-14 13:59N 40°43' W 074°03'961620172.6
2017-Nov-14 13:30N 23°02' E 113°31'9616417062.9
2017-Nov-14 13:29N 40°43' W 074°03'961619480.1
2017-Nov-14 12:59N 23°02' E 113°31'96161505053.0
2017-Nov-14 12:59N 40°43' W 074°03'961619414.6
2017-Nov-14 12:29N 23°02' E 113°31'96162163512.4
2017-Nov-14 12:29N 40°43' W 074°03'961619646.0
2017-Nov-14 11:59N 23°02' E 113°31'9616887595.4
2017-Nov-14 11:59N 40°43' W 074°03'961620160.9
2017-Nov-14 11:30N 23°02' E 113°31'9616417062.9
2017-Nov-14 11:29N 40°43' W 074°03'961620137.4
2017-Nov-14 11:00N 23°02' E 113°31'9616422148.8
2017-Nov-14 10:59N 40°43' W 074°03'  

Dump ship's entire track history